Pago Pago, AS (96799)

5:31 AM SST on December 07, 2016 (GMT -1100)
Malaeimi | | Change Station

Elev 217 ft 14.32 °S, 170.74 °W | Updated 51 seconds ago

Clear
Clear
76.9 °F
Feels Like 78 °F
N
1.0
Wind Variable Wind from North
Gusts 2.0 mph

Today
High -- | Low -- °F
--% Chance of Precip.
Yesterday
High -- | Low -- °F
Precip. -- in
Pressure 29.93 in
Visibility 10.0 miles
Clouds Clear
Heat Index 78 °F
Dew Point 75 °F
Humidity 93%
Rainfall 0.00 in
Snow Depth Not available.
5:46 AM 6:43 PM
First Quarter, 54% visible
METAR PHKO 071553Z 01006KT 10SM CLR 22/20 A2992 RMK AO2 SLP133 T02220200 $
Pressure 29.93 in
Visibility 10.0 miles
Clouds Clear
Heat Index 78 °F
Dew Point 75 °F
Humidity 93%
Rainfall 0.00 in
Snow Depth Not available.
5:46 AM 6:43 PM
First Quarter, 54% visible
METAR PHKO 071553Z 01006KT 10SM CLR 22/20 A2992 RMK AO2 SLP133 T02220200 $

10-Day Weather Forecast

No radar image for this location.
×

Almanac

Astronomy

Dec. 07, 2016 Rise Set
Actual Time
Civil Twilight
Nautical Twilight
Astronomical Twilight
Moon
Length of Visible Light
Length of Day
Tomorrow will be .
, % of the Moon is Illuminated

Today's Extremes

State Highs State Lows

Community

WunderPhotos

Upload Photos

1,956,132 photos uploaded!

WunderBlog® & News

Nearby

Air Quality

  Air Quality AQ Index Pollutant
Not available.

Snow Depth

Station Depth Elevation

Earthquake Activity

City Distance Mag. Time & Date
Minimum magnitude displayed is 2.5.

Coastal Water Temperatures

Place Temperature

Stations

Nearby Weather Stations

Station Location Temp. Windchill Dew Point Humidity Wind Precip. Elev Updated Type
                   

Watches & Warnings

There are currently no watches in effect.